createdAt,value
2018-03-28T00:00:57.011Z,84.86
2018-03-28T00:01:57.007Z,84.98
2018-03-28T00:02:57.008Z,85.7
2018-03-28T00:03:57.043Z,85.81
2018-03-28T00:04:57.019Z,85.63
2018-03-28T00:05:57.018Z,86.01
2018-03-28T00:06:57.043Z,86.09
2018-03-28T00:07:57.010Z,86.56
2018-03-28T00:08:57.008Z,86.73
2018-03-28T00:09:57.009Z,86.07
2018-03-28T00:10:57.013Z,86.84
2018-03-28T00:11:57.013Z,87.25
2018-03-28T00:12:57.014Z,86.94
2018-03-28T00:13:57.033Z,87.61
2018-03-28T00:14:57.013Z,87.39
2018-03-28T00:15:57.013Z,87.19
2018-03-28T00:16:57.065Z,87.26
2018-03-28T00:17:57.049Z,87.4
2018-03-28T00:18:57.013Z,87.42
2018-03-28T00:19:57.021Z,87.91
2018-03-28T00:20:57.065Z,88.25
2018-03-28T00:21:57.024Z,87.77
2018-03-28T00:22:57.013Z,88.28
2018-03-28T00:23:57.016Z,88.27
2018-03-28T00:24:57.016Z,88.14
2018-03-28T00:25:57.019Z,88.51
2018-03-28T00:26:57.018Z,88.54
2018-03-28T00:27:57.020Z,88.29
2018-03-28T00:28:57.023Z,88.43
2018-03-28T00:29:57.029Z,88.68
2018-03-28T00:30:57.019Z,88.51
2018-03-28T00:31:57.023Z,89.2
2018-03-28T00:32:57.018Z,89.37
2018-03-28T00:33:57.017Z,89.07
2018-03-28T00:34:57.024Z,89.48
2018-03-28T00:35:57.027Z,89.28
2018-03-28T00:36:57.021Z,89.12
2018-03-28T00:37:57.025Z,88.63
2018-03-28T00:38:57.018Z,88.97
2018-03-28T00:39:57.016Z,89.28
2018-03-28T00:40:57.020Z,89.36
2018-03-28T00:41:57.057Z,89.41
2018-03-28T00:42:57.020Z,89.32
2018-03-28T00:43:57.023Z,89.15
2018-03-28T00:44:57.025Z,89.47
2018-03-28T00:45:57.024Z,89.48
2018-03-28T00:46:57.027Z,89.83
2018-03-28T00:47:57.141Z,89.45
2018-03-28T00:48:57.026Z,89.67
2018-03-28T00:49:57.027Z,89.92
2018-03-28T00:50:57.028Z,89.39
2018-03-28T00:51:57.036Z,89.87
2018-03-28T00:52:57.036Z,89.46
2018-03-28T00:53:57.074Z,89.78
2018-03-28T00:54:57.037Z,89.85
2018-03-28T00:55:57.025Z,90.04
2018-03-28T00:56:57.064Z,89.4
2018-03-28T00:57:57.028Z,89.53
2018-03-28T00:58:57.033Z,89.88
2018-03-28T00:59:57.029Z,90.21
2018-03-28T01:00:57.033Z,89.11
2018-03-28T01:01:57.055Z,89.86
2018-03-28T01:02:57.033Z,90.06
2018-03-28T01:03:57.030Z,90.5
2018-03-28T01:04:57.029Z,90.01
2018-03-28T01:05:57.059Z,89.86
2018-03-28T01:06:57.045Z,89.53
2018-03-28T01:07:57.067Z,90.04
2018-03-28T01:08:57.054Z,90.08
2018-03-28T01:09:57.043Z,90.68
2018-03-28T01:10:57.031Z,90.81
2018-03-28T01:11:57.081Z,91.05
2018-03-28T01:12:57.073Z,90.76
2018-03-28T01:13:57.035Z,90.8
2018-03-28T01:14:57.036Z,91.51
2018-03-28T01:15:57.043Z,91.34
2018-03-28T01:16:57.037Z,91.4
2018-03-28T01:17:57.058Z,91.04
2018-03-28T01:18:57.150Z,91.14
2018-03-28T01:19:57.039Z,91.69
2018-03-28T01:20:57.038Z,91.7
2018-03-28T01:21:57.041Z,91.51
2018-03-28T01:22:57.036Z,91.85
2018-03-28T01:23:57.044Z,91.81
2018-03-28T01:24:57.041Z,91.78
2018-03-28T01:25:57.043Z,91.13
2018-03-28T01:26:57.042Z,91.49
2018-03-28T01:27:57.037Z,91.14
2018-03-28T01:28:57.041Z,91.04
2018-03-28T01:29:57.041Z,91.68
2018-03-28T01:30:57.039Z,91.47
2018-03-28T01:31:57.041Z,91.44
2018-03-28T01:32:57.041Z,91.38
2018-03-28T01:33:57.044Z,91.28
2018-03-28T01:34:57.179Z,91.34
2018-03-28T01:35:57.046Z,91.68
2018-03-28T01:36:57.046Z,91.42
2018-03-28T01:37:57.057Z,91.72
2018-03-28T01:38:57.053Z,91.75
2018-03-28T01:39:57.486Z,91.79
2018-03-28T01:40:57.086Z,91.26
2018-03-28T01:41:57.039Z,91.04
2018-03-28T01:42:57.042Z,91.62
2018-03-28T01:43:57.044Z,91.6
2018-03-28T01:44:57.068Z,91.67
2018-03-28T01:45:57.044Z,91.46
2018-03-28T01:46:57.048Z,91.72
2018-03-28T01:47:57.056Z,91.7
2018-03-28T01:48:57.045Z,91.54
2018-03-28T01:49:57.152Z,91.69
2018-03-28T01:50:57.060Z,91.5
2018-03-28T01:51:57.045Z,91.19
2018-03-28T01:52:57.051Z,91.37
2018-03-28T01:53:57.054Z,91.11
2018-03-28T01:54:57.072Z,91.89
2018-03-28T01:55:57.058Z,92.13
2018-03-28T01:56:57.050Z,91.81
2018-03-28T01:57:57.057Z,91.36
2018-03-28T01:58:57.051Z,91.54
2018-03-28T01:59:57.322Z,92.2
2018-03-28T02:00:57.053Z,92.14
2018-03-28T02:01:57.054Z,91.83
2018-03-28T02:02:57.058Z,91.84
2018-03-28T02:03:57.051Z,92.43
2018-03-28T02:04:57.140Z,92.44
2018-03-28T02:05:57.055Z,92.07
2018-03-28T02:06:57.066Z,92.69
2018-03-28T02:07:57.067Z,92.57
2018-03-28T02:08:57.058Z,92.92
2018-03-28T02:09:57.060Z,92.12
2018-03-28T02:10:57.107Z,92.18
2018-03-28T02:11:57.062Z,92.19
2018-03-28T02:12:57.056Z,92.42
2018-03-28T02:13:57.059Z,91.92
2018-03-28T02:14:57.057Z,91.27
2018-03-28T02:15:57.079Z,91.67
2018-03-28T02:16:57.064Z,91.81
2018-03-28T02:17:57.058Z,91.8
2018-03-28T02:18:57.100Z,91.78
2018-03-28T02:19:57.063Z,92.04
2018-03-28T02:20:57.112Z,92.04
2018-03-28T02:21:57.063Z,92.52
2018-03-28T02:22:57.059Z,92.31
2018-03-28T02:23:57.064Z,92.19
2018-03-28T02:24:57.066Z,92.62
2018-03-28T02:25:57.066Z,92.05
2018-03-28T02:26:57.068Z,91.75
2018-03-28T02:27:57.059Z,92.64
2018-03-28T02:28:57.073Z,92.67
2018-03-28T02:29:57.067Z,93.11
2018-03-28T02:30:57.100Z,93.21
2018-03-28T02:31:57.067Z,92.52
2018-03-28T02:32:57.072Z,92.8
2018-03-28T02:33:57.072Z,92.16
2018-03-28T02:34:57.066Z,92.48
2018-03-28T02:35:57.064Z,92.52
2018-03-28T02:36:57.067Z,92.44
2018-03-28T02:37:57.072Z,92.52
2018-03-28T02:38:57.069Z,92.19
2018-03-28T02:39:57.071Z,92.14
2018-03-28T02:40:57.068Z,92.67
2018-03-28T02:41:57.075Z,92.73
2018-03-28T02:42:57.090Z,92.57
2018-03-28T02:43:57.083Z,92.26
2018-03-28T02:44:57.072Z,92.76
2018-03-28T02:45:57.070Z,93.05
2018-03-28T02:46:57.078Z,92.89
2018-03-28T02:47:57.093Z,93.32
2018-03-28T02:48:57.074Z,93.19
2018-03-28T02:49:57.093Z,92.61
2018-03-28T02:50:57.073Z,92.84
2018-03-28T02:51:57.121Z,92.72
2018-03-28T02:52:57.073Z,93.19
2018-03-28T02:53:57.074Z,92.86
2018-03-28T02:54:57.079Z,93.54
2018-03-28T02:55:57.097Z,93.53
2018-03-28T02:56:57.071Z,93.58
2018-03-28T02:57:57.076Z,93.52
2018-03-28T02:58:57.077Z,92.55
2018-03-28T02:59:57.076Z,92.92
2018-03-28T03:00:57.099Z,93.17
2018-03-28T03:01:57.074Z,93.09
2018-03-28T03:02:57.077Z,93.19
2018-03-28T03:03:57.076Z,93.77
2018-03-28T03:04:57.076Z,93.34
2018-03-28T03:05:57.076Z,93.12
2018-03-28T03:06:57.183Z,93.7
2018-03-28T03:07:57.083Z,93.15
2018-03-28T03:08:57.075Z,92.9
2018-03-28T03:09:57.078Z,92.98
2018-03-28T03:10:57.093Z,92.96
2018-03-28T03:11:57.099Z,93.2
2018-03-28T03:12:57.083Z,93.58
2018-03-28T03:13:57.087Z,93.52
2018-03-28T03:14:57.086Z,93.33
2018-03-28T03:15:57.077Z,93.96
2018-03-28T03:16:57.085Z,93.34
2018-03-28T03:17:57.080Z,93.15
2018-03-28T03:18:57.083Z,93.72
2018-03-28T03:19:57.081Z,93.29
2018-03-28T03:20:57.084Z,93.15
2018-03-28T03:21:57.080Z,93.59
2018-03-28T03:22:57.146Z,93.52
2018-03-28T03:23:57.080Z,93.55
2018-03-28T03:24:57.081Z,93.26
2018-03-28T03:25:57.120Z,93.51
2018-03-28T03:26:57.099Z,93.58
2018-03-28T03:27:57.087Z,93.19
2018-03-28T03:28:57.081Z,93.25
2018-03-28T03:29:57.097Z,93.26
2018-03-28T03:30:57.077Z,93.5
2018-03-28T03:31:57.083Z,93.26
2018-03-28T03:32:57.089Z,93.54
2018-03-28T03:33:57.080Z,94.27
2018-03-28T03:34:57.084Z,93.8
2018-03-28T03:35:57.087Z,93.49
2018-03-28T03:36:57.122Z,93.51
2018-03-28T03:37:57.089Z,92.95
2018-03-28T03:38:57.083Z,93.21
2018-03-28T03:39:57.088Z,93.79
2018-03-28T03:40:57.095Z,94
2018-03-28T03:41:57.102Z,93.74
2018-03-28T03:42:57.086Z,93.57
2018-03-28T03:43:57.084Z,93.58
2018-03-28T03:44:57.086Z,93.1
2018-03-28T03:45:57.085Z,93.46
2018-03-28T03:46:57.092Z,93.78
2018-03-28T03:47:57.087Z,93.9
2018-03-28T03:48:57.135Z,93.4
2018-03-28T03:49:57.092Z,93.12
2018-03-28T03:50:57.088Z,93.4
2018-03-28T03:51:57.086Z,93.7
2018-03-28T03:52:57.091Z,92.9
2018-03-28T03:53:57.189Z,93.67
2018-03-28T03:54:57.087Z,93.72
2018-03-28T03:55:57.112Z,93.79
2018-03-28T03:56:57.089Z,94.07
2018-03-28T03:57:57.091Z,93.83
2018-03-28T03:58:57.094Z,93.59
2018-03-28T03:59:57.087Z,93.84
2018-03-28T04:00:57.087Z,93.97
2018-03-28T04:01:57.085Z,93.78
2018-03-28T04:02:57.093Z,93.76
2018-03-28T04:03:57.094Z,93.71
2018-03-28T04:04:57.091Z,93.64
2018-03-28T04:05:57.096Z,94.08
2018-03-28T04:06:57.090Z,93.88
2018-03-28T04:07:57.090Z,94.02
2018-03-28T04:08:57.092Z,93.96
2018-03-28T04:09:57.100Z,93.88
2018-03-28T04:10:57.092Z,94.13
2018-03-28T04:11:57.097Z,93.92
2018-03-28T04:12:57.093Z,94.04
2018-03-28T04:13:57.119Z,93.91
2018-03-28T04:14:57.098Z,93.37
2018-03-28T04:15:57.098Z,93.69
2018-03-28T04:16:57.098Z,93.75
2018-03-28T04:17:57.099Z,93.7
2018-03-28T04:18:57.127Z,93.73
2018-03-28T04:19:57.096Z,93.53
2018-03-28T04:20:57.095Z,93.23
2018-03-28T04:21:57.100Z,93.04
2018-03-28T04:22:57.099Z,93.72
2018-03-28T04:23:57.098Z,93.43
2018-03-28T04:24:57.173Z,93.65
2018-03-28T04:25:57.100Z,93.27
2018-03-28T04:26:57.098Z,92.92
2018-03-28T04:27:57.102Z,93.43
2018-03-28T04:28:57.100Z,93.8
2018-03-28T04:29:57.098Z,93.62
2018-03-28T04:30:57.097Z,93.49
2018-03-28T04:31:57.100Z,92.82
2018-03-28T04:32:57.104Z,93.25
2018-03-28T04:33:57.113Z,93.49
2018-03-28T04:34:57.107Z,93.4
2018-03-28T04:35:57.106Z,93.75
2018-03-28T04:36:57.131Z,93.6
2018-03-28T04:37:57.106Z,93.29
2018-03-28T04:38:57.110Z,93.64
2018-03-28T04:39:57.105Z,93.28
2018-03-28T04:40:57.109Z,93.17
2018-03-28T04:41:57.122Z,92.81
2018-03-28T04:42:57.112Z,93.03
2018-03-28T04:43:57.114Z,93.17
2018-03-28T04:44:57.120Z,93.47
2018-03-28T04:45:57.136Z,93.36
2018-03-28T04:46:57.105Z,93.15
2018-03-28T04:47:57.134Z,93.46
2018-03-28T04:48:57.107Z,93.39
2018-03-28T04:49:57.110Z,93.43
2018-03-28T04:50:57.110Z,93.09
2018-03-28T04:51:57.113Z,92.86
2018-03-28T04:52:57.118Z,92.86
2018-03-28T04:53:57.112Z,92.66
2018-03-28T04:54:57.110Z,92.62
2018-03-28T04:55:57.230Z,92.28
2018-03-28T04:56:57.109Z,93.13
2018-03-28T04:57:57.121Z,92.9
2018-03-28T04:58:57.119Z,92.22
2018-03-28T04:59:57.113Z,92.31
2018-03-28T05:00:57.141Z,92.49
2018-03-28T05:01:57.123Z,92.52
2018-03-28T05:02:57.118Z,92.75
2018-03-28T05:03:57.128Z,92.08
2018-03-28T05:04:57.119Z,92.08
2018-03-28T05:05:57.120Z,92.01
2018-03-28T05:06:57.117Z,92.15
2018-03-28T05:07:57.113Z,91.89
2018-03-28T05:08:57.126Z,91.71
2018-03-28T05:09:57.121Z,91.46
2018-03-28T05:10:57.118Z,91.67
2018-03-28T05:11:57.120Z,91.83
2018-03-28T05:12:57.119Z,91.6
2018-03-28T05:13:57.119Z,91.47
2018-03-28T05:14:57.156Z,91.18
2018-03-28T05:15:57.121Z,91.9
2018-03-28T05:16:57.117Z,91.67
2018-03-28T05:17:57.123Z,91.72
2018-03-28T05:18:57.118Z,91.64
2018-03-28T05:19:57.118Z,91.1
2018-03-28T05:20:57.121Z,90.91
2018-03-28T05:21:57.118Z,91.04
2018-03-28T05:22:57.125Z,91.17
2018-03-28T05:23:57.125Z,91.07
2018-03-28T05:24:57.124Z,90.49
2018-03-28T05:25:57.144Z,90.69
2018-03-28T05:26:57.201Z,90.58
2018-03-28T05:27:57.133Z,90.54
2018-03-28T05:28:57.146Z,90.75
2018-03-28T05:29:57.129Z,90.58
2018-03-28T05:30:57.147Z,90.82
2018-03-28T05:31:57.135Z,90.53
2018-03-28T05:32:57.144Z,90.17
2018-03-28T05:33:57.122Z,90.17
2018-03-28T05:34:57.127Z,90.68
2018-03-28T05:35:57.150Z,90.49
2018-03-28T05:36:57.131Z,90.22
2018-03-28T05:37:57.128Z,90.11
2018-03-28T05:38:57.129Z,90.22
2018-03-28T05:39:57.138Z,90.44
2018-03-28T05:40:57.131Z,90.05
2018-03-28T05:41:57.126Z,89.67
2018-03-28T05:42:57.132Z,90.05
2018-03-28T05:43:57.138Z,89.82
2018-03-28T05:44:57.142Z,89.69
2018-03-28T05:45:57.159Z,89.51
2018-03-28T05:46:57.157Z,89.01
2018-03-28T05:47:57.136Z,89.79
2018-03-28T05:48:57.132Z,90.08
2018-03-28T05:49:57.142Z,90.16
2018-03-28T05:50:57.162Z,90.49
2018-03-28T05:51:57.133Z,90.57
2018-03-28T05:52:57.134Z,90.06
2018-03-28T05:53:57.133Z,89.62
2018-03-28T05:54:57.157Z,89.97
2018-03-28T05:55:57.154Z,90.17
2018-03-28T05:56:57.140Z,89.95
2018-03-28T05:57:57.214Z,89.69
2018-03-28T05:58:57.140Z,89.98
2018-03-28T05:59:57.157Z,90.24
2018-03-28T06:00:57.133Z,90.66
2018-03-28T06:01:57.164Z,90.56
2018-03-28T06:02:57.142Z,89.98
2018-03-28T06:03:57.138Z,89.7
2018-03-28T06:04:57.140Z,89.92
2018-03-28T06:05:57.141Z,89.61
2018-03-28T06:06:57.164Z,89.82
2018-03-28T06:07:57.143Z,89.98
2018-03-28T06:08:57.143Z,89.76
2018-03-28T06:09:57.149Z,89.62
2018-03-28T06:10:57.168Z,89.87
2018-03-28T06:11:57.137Z,89.8
2018-03-28T06:12:57.189Z,90.2
2018-03-28T06:13:57.141Z,90.33
2018-03-28T06:14:57.153Z,90.25
2018-03-28T06:15:57.151Z,90.1
2018-03-28T06:16:57.163Z,90.52
2018-03-28T06:17:57.145Z,89.98
2018-03-28T06:18:57.508Z,89.8
2018-03-28T06:19:57.175Z,89.26
2018-03-28T06:20:57.142Z,89.26
2018-03-28T06:21:57.220Z,89.03
2018-03-28T06:22:57.146Z,88.78
2018-03-28T06:23:57.146Z,88.7
2018-03-28T06:24:57.157Z,88.72
2018-03-28T06:25:57.143Z,88.12
2018-03-28T06:26:57.150Z,88.33
2018-03-28T06:27:57.145Z,88.43
2018-03-28T06:28:57.214Z,88.37
2018-03-28T06:29:57.145Z,87.82
2018-03-28T06:30:57.151Z,87.85
2018-03-28T06:31:57.146Z,87.67
2018-03-28T06:32:57.152Z,87.57
2018-03-28T06:33:57.148Z,87.38
2018-03-28T06:34:57.162Z,87.14
2018-03-28T06:35:57.152Z,87.47
2018-03-28T06:36:57.143Z,87.08
2018-03-28T06:37:57.244Z,87.29
2018-03-28T06:38:57.173Z,87.27
2018-03-28T06:39:57.158Z,87.14
2018-03-28T06:40:57.159Z,87.38
2018-03-28T06:41:57.152Z,86.84
2018-03-28T06:42:57.155Z,86.53
2018-03-28T06:43:57.151Z,86.17
2018-03-28T06:44:57.150Z,85.63
2018-03-28T06:45:57.157Z,85.6
2018-03-28T06:46:57.157Z,85.65
2018-03-28T06:47:57.161Z,85.16
2018-03-28T06:48:57.155Z,85.11
2018-03-28T06:49:57.159Z,84.95
2018-03-28T06:50:57.149Z,85.3
2018-03-28T06:51:57.148Z,85.49
2018-03-28T06:52:57.162Z,84.95
2018-03-28T06:53:57.165Z,84.73
2018-03-28T06:54:57.159Z,84.28
2018-03-28T06:55:57.467Z,84.22
2018-03-28T06:56:57.152Z,84.22
2018-03-28T06:57:57.159Z,84.1
2018-03-28T06:58:57.157Z,83.98
2018-03-28T06:59:57.240Z,84.12
2018-03-28T07:00:57.157Z,84.27
2018-03-28T07:01:57.225Z,84.26
2018-03-28T07:02:57.154Z,84.28
2018-03-28T07:03:57.161Z,84.27
2018-03-28T07:04:57.164Z,84.63
2018-03-28T07:05:57.159Z,84.63
2018-03-28T07:06:57.194Z,84.53
2018-03-28T07:07:57.154Z,84.2
2018-03-28T07:08:57.422Z,84.32
2018-03-28T07:09:57.155Z,84.1
2018-03-28T07:10:57.176Z,82.57
2018-03-28T07:11:57.158Z,82.77
2018-03-28T07:12:57.169Z,83.03
2018-03-28T07:13:57.179Z,83.53
2018-03-28T07:14:57.168Z,83.16
2018-03-28T07:15:57.167Z,82.27
2018-03-28T07:16:57.182Z,82.62
2018-03-28T07:17:57.157Z,82.33
2018-03-28T07:18:57.183Z,82.72
2018-03-28T07:19:57.165Z,82.05
2018-03-28T07:20:57.156Z,81.83
2018-03-28T07:21:57.162Z,82.02
2018-03-28T07:22:57.165Z,81.61
2018-03-28T07:23:57.184Z,82.09
2018-03-28T07:24:57.202Z,80.93
2018-03-28T07:25:57.167Z,80.32
2018-03-28T07:26:57.167Z,80.34
2018-03-28T07:27:57.165Z,80.21
2018-03-28T07:28:57.172Z,80.44
2018-03-28T07:29:57.187Z,80.12
2018-03-28T07:30:57.227Z,79.58
2018-03-28T07:31:57.167Z,79.46
2018-03-28T07:32:57.168Z,80.09
2018-03-28T07:33:57.167Z,79.92
2018-03-28T07:34:57.185Z,79.07
2018-03-28T07:35:57.163Z,78.15
2018-03-28T07:36:57.174Z,78.26
2018-03-28T07:37:57.168Z,77.95
2018-03-28T07:38:57.165Z,77.4
2018-03-28T07:39:57.173Z,77.56
2018-03-28T07:40:57.168Z,77.2
2018-03-28T07:41:57.171Z,76.28
2018-03-28T07:42:57.185Z,77.33
2018-03-28T07:43:57.173Z,76.68
2018-03-28T07:44:57.180Z,76.95
2018-03-28T07:45:57.168Z,77
2018-03-28T07:46:57.173Z,77.39
2018-03-28T07:47:57.199Z,77.41
2018-03-28T07:48:57.188Z,77.59
2018-03-28T07:49:57.196Z,76.61
2018-03-28T07:50:57.178Z,76.13
2018-03-28T07:51:57.168Z,76.02
2018-03-28T07:52:57.174Z,75.34
2018-03-28T07:53:57.173Z,74.82
2018-03-28T07:54:57.194Z,73.65
2018-03-28T07:55:57.171Z,74.37
2018-03-28T07:56:57.173Z,73.91
2018-03-28T07:57:57.230Z,73.85
2018-03-28T07:58:57.192Z,74.21
2018-03-28T07:59:57.183Z,74.94
2018-03-28T08:00:57.186Z,74.26
2018-03-28T08:01:57.271Z,72.77
2018-03-28T08:02:57.190Z,72.27
2018-03-28T08:03:57.246Z,73.34
2018-03-28T08:04:57.176Z,73.72
2018-03-28T08:05:57.191Z,73.41
2018-03-28T08:06:57.175Z,72.66
2018-03-28T08:07:57.175Z,73.22
2018-03-28T08:08:57.185Z,72.95
2018-03-28T08:09:57.205Z,73.51
2018-03-28T08:10:57.177Z,72.32
2018-03-28T08:11:57.179Z,71.9
2018-03-28T08:12:57.184Z,71.71
2018-03-28T08:13:57.201Z,70.77
2018-03-28T08:14:57.181Z,70.09
2018-03-28T08:15:57.205Z,69.43
2018-03-28T08:16:57.175Z,68.95
2018-03-28T08:17:57.180Z,69.38
2018-03-28T08:18:57.183Z,69.6
2018-03-28T08:19:57.193Z,70.3
2018-03-28T08:20:57.183Z,69.89
2018-03-28T08:21:57.178Z,71.25
2018-03-28T08:22:57.204Z,69.49
2018-03-28T08:23:57.178Z,69.61
2018-03-28T08:24:57.199Z,69.02
2018-03-28T08:25:57.181Z,69.66
2018-03-28T08:26:57.177Z,69.95
2018-03-28T08:27:57.195Z,69.19
2018-03-28T08:28:57.182Z,68.29
2018-03-28T08:29:57.221Z,67.87
2018-03-28T08:30:57.193Z,67.11
2018-03-28T08:31:57.185Z,67.66
2018-03-28T08:32:57.236Z,67.62
2018-03-28T08:33:57.182Z,66.35
2018-03-28T08:34:57.209Z,65.47
2018-03-28T08:35:57.186Z,64.3
2018-03-28T08:36:57.194Z,65.02
2018-03-28T08:37:57.196Z,65.25
2018-03-28T08:38:57.187Z,66.11
2018-03-28T08:39:57.185Z,64.97
2018-03-28T08:40:57.186Z,65.12
2018-03-28T08:41:57.189Z,64.89
2018-03-28T08:42:57.188Z,64.83
2018-03-28T08:43:57.186Z,65.25
2018-03-28T08:44:57.192Z,65.01
2018-03-28T08:45:57.194Z,62.48
2018-03-28T08:46:57.200Z,64.08
2018-03-28T08:47:57.195Z,64.03
2018-03-28T08:48:57.195Z,64.91
2018-03-28T08:49:57.200Z,65.05
2018-03-28T08:50:57.202Z,64.51
2018-03-28T08:51:57.199Z,65.21
2018-03-28T08:52:57.196Z,64.97
2018-03-28T08:53:57.204Z,64.57
2018-03-28T08:54:57.191Z,64.62
2018-03-28T08:55:57.196Z,65
2018-03-28T08:56:57.192Z,65.66
2018-03-28T08:57:57.194Z,63.91
2018-03-28T08:58:57.193Z,65.08
2018-03-28T08:59:57.195Z,64.47
2018-03-28T09:00:57.660Z,64.33
2018-03-28T09:01:57.510Z,64.63
2018-03-28T09:02:57.195Z,64.02
2018-03-28T09:03:57.257Z,63.4
2018-03-28T09:04:57.203Z,63.84
2018-03-28T09:05:57.209Z,63.75
2018-03-28T09:06:57.239Z,63.72
2018-03-28T09:07:57.220Z,63.56
2018-03-28T09:08:57.199Z,63.15
2018-03-28T09:09:57.236Z,62.9
2018-03-28T09:10:57.197Z,63.14
2018-03-28T09:11:57.194Z,63.16
2018-03-28T09:12:57.196Z,63.61
2018-03-28T09:13:57.196Z,63.29
2018-03-28T09:14:57.205Z,63.86
2018-03-28T09:15:57.197Z,63.1
2018-03-28T09:16:57.225Z,63.12
2018-03-28T09:17:57.205Z,62.71
2018-03-28T09:18:57.203Z,63.07
2018-03-28T09:19:57.261Z,62.42
2018-03-28T09:20:57.209Z,62.85
2018-03-28T09:21:57.234Z,62
2018-03-28T09:22:57.259Z,62.72
2018-03-28T09:23:57.199Z,62.77
2018-03-28T09:24:57.207Z,62.21
2018-03-28T09:25:57.196Z,61.11
2018-03-28T09:26:57.222Z,61.53
2018-03-28T09:27:57.197Z,62.18
2018-03-28T09:28:57.204Z,61.29
2018-03-28T09:29:57.207Z,60.79
2018-03-28T09:30:57.203Z,60.37
2018-03-28T09:31:57.226Z,61.36
2018-03-28T09:32:57.252Z,61.77
2018-03-28T09:33:57.211Z,61.54
2018-03-28T09:34:58.445Z,60.84
2018-03-28T09:35:57.211Z,61.9
2018-03-28T09:36:58.910Z,61.31
2018-03-28T09:37:58.231Z,61.45
2018-03-28T09:38:57.335Z,60.89
2018-03-28T09:39:57.209Z,61.03
2018-03-28T09:40:57.203Z,60.57
2018-03-28T09:41:57.242Z,61.05
2018-03-28T09:42:57.203Z,60.84
2018-03-28T09:43:57.210Z,61.32
2018-03-28T09:44:57.209Z,61.67
2018-03-28T09:45:57.213Z,61.16
2018-03-28T09:46:57.506Z,61
2018-03-28T09:47:57.213Z,60.66
2018-03-28T09:48:57.219Z,60.24
2018-03-28T09:49:57.213Z,60.32
2018-03-28T09:50:57.217Z,60.16
2018-03-28T09:51:57.246Z,59.6
2018-03-28T09:52:57.209Z,59.5
2018-03-28T09:53:57.220Z,60.59
2018-03-28T09:54:57.224Z,59.46
2018-03-28T09:55:57.214Z,60.11
2018-03-28T09:56:57.490Z,59.89
2018-03-28T09:57:57.217Z,59.07
2018-03-28T09:58:57.210Z,57.93
2018-03-28T09:59:57.237Z,58.11
2018-03-28T10:00:57.223Z,57.85
2018-03-28T10:01:57.235Z,58.8
2018-03-28T10:02:57.212Z,57.51
2018-03-28T10:03:57.221Z,58.03
2018-03-28T10:04:57.222Z,58.15
2018-03-28T10:05:57.313Z,58.72
2018-03-28T10:06:57.276Z,57.63
2018-03-28T10:07:57.212Z,56.89
2018-03-28T10:08:57.218Z,56.87
2018-03-28T10:09:57.216Z,57.95
2018-03-28T10:10:57.215Z,56.82
2018-03-28T10:11:57.217Z,57.95
2018-03-28T10:12:57.214Z,57.5
2018-03-28T10:13:57.239Z,57.33
2018-03-28T10:14:57.216Z,57.71
2018-03-28T10:15:57.216Z,57.78
2018-03-28T10:16:57.227Z,57.32
2018-03-28T10:17:57.498Z,56.95
2018-03-28T10:18:57.221Z,57.67
2018-03-28T10:19:57.223Z,57.52
2018-03-28T10:20:57.228Z,57.66
2018-03-28T10:21:57.231Z,57.76
2018-03-28T10:22:57.255Z,57.44
2018-03-28T10:23:57.232Z,57.68
2018-03-28T10:24:57.227Z,57.14
2018-03-28T10:25:57.223Z,56.97
2018-03-28T10:26:57.243Z,57.69
2018-03-28T10:27:57.229Z,58.38
2018-03-28T10:28:57.234Z,58.49
2018-03-28T10:29:57.230Z,58.15
2018-03-28T10:30:57.233Z,57.85
2018-03-28T10:31:57.235Z,57.99
2018-03-28T10:32:57.236Z,59.05
2018-03-28T10:33:57.254Z,57.97
2018-03-28T10:34:57.233Z,58.58
2018-03-28T10:35:57.252Z,58.77
2018-03-28T10:36:57.317Z,58.87
2018-03-28T10:37:57.241Z,58.12
2018-03-28T10:38:57.253Z,58.14
2018-03-28T10:39:57.245Z,58.87
2018-03-28T10:40:57.240Z,58.73
2018-03-28T10:41:57.251Z,59.24
2018-03-28T10:42:57.258Z,59.81
2018-03-28T10:43:57.245Z,59.62
2018-03-28T10:44:57.236Z,59.08
2018-03-28T10:45:57.240Z,58.95
2018-03-28T10:46:57.240Z,59.04
2018-03-28T10:47:57.247Z,59.07
2018-03-28T10:48:57.237Z,58.96
2018-03-28T10:49:57.248Z,58.57
2018-03-28T10:50:57.240Z,58.97
2018-03-28T10:51:57.243Z,58.53
2018-03-28T10:52:57.253Z,58.65
2018-03-28T10:53:57.267Z,58.66
2018-03-28T10:54:57.245Z,58.72
2018-03-28T10:55:57.255Z,59.24
2018-03-28T10:56:57.255Z,59.03
2018-03-28T10:57:57.245Z,58.76
2018-03-28T10:58:57.279Z,57.82
2018-03-28T10:59:57.253Z,58.65
2018-03-28T11:00:57.251Z,58.79
2018-03-28T11:01:57.251Z,58.19
2018-03-28T11:02:57.251Z,57.06
2018-03-28T11:03:57.250Z,57.36
2018-03-28T11:04:57.259Z,57.5
2018-03-28T11:05:57.270Z,57.04
2018-03-28T11:06:57.260Z,57.7
2018-03-28T11:07:57.341Z,57.42
2018-03-28T11:08:57.259Z,58.15
2018-03-28T11:09:57.250Z,58.81
2018-03-28T11:10:57.256Z,57.7
2018-03-28T11:11:57.280Z,57.73
2018-03-28T11:12:57.330Z,57.44
2018-03-28T11:13:57.270Z,57.73
2018-03-28T11:14:57.258Z,57.04
2018-03-28T11:15:57.260Z,57.78
2018-03-28T11:16:58.942Z,56.14
2018-03-28T11:17:57.255Z,55.98
2018-03-28T11:18:57.264Z,55.56
2018-03-28T11:19:57.297Z,55.94
2018-03-28T11:20:57.323Z,55.71
2018-03-28T11:21:57.305Z,54.85
2018-03-28T11:22:57.266Z,54.35
2018-03-28T11:23:59.568Z,55.35
2018-03-28T11:24:57.279Z,54.11
2018-03-28T11:25:57.290Z,54.59
2018-03-28T11:26:57.271Z,55.12
2018-03-28T11:27:57.275Z,53.89
2018-03-28T11:28:57.269Z,54.4
2018-03-28T11:29:57.288Z,53.92
2018-03-28T11:30:57.279Z,53.33
2018-03-28T11:31:57.299Z,53.32
2018-03-28T11:32:57.263Z,53.59
2018-03-28T11:33:57.262Z,54.08
2018-03-28T11:34:57.291Z,54.73
2018-03-28T11:35:57.262Z,55.02
2018-03-28T11:36:57.268Z,54.6
2018-03-28T11:37:57.273Z,54.62
2018-03-28T11:38:57.337Z,54.79
2018-03-28T11:39:57.291Z,55.07
2018-03-28T11:40:57.270Z,54.01
2018-03-28T11:41:57.280Z,54.06
2018-03-28T11:42:57.271Z,54.25
2018-03-28T11:43:57.269Z,53.94
2018-03-28T11:44:57.408Z,54.62
2018-03-28T11:45:57.278Z,54.69
2018-03-28T11:46:57.274Z,54.22
2018-03-28T11:47:57.277Z,55.01
2018-03-28T11:48:57.274Z,55.12
2018-03-28T11:49:57.293Z,55.89
2018-03-28T11:50:57.278Z,55.06
2018-03-28T11:51:57.271Z,55.91
2018-03-28T11:52:57.419Z,55.33
2018-03-28T11:53:57.272Z,55.07
2018-03-28T11:54:57.303Z,55.43
2018-03-28T11:55:57.273Z,56.41
2018-03-28T11:56:57.283Z,56.53
2018-03-28T11:57:57.288Z,56.12
2018-03-28T11:58:57.281Z,56.53
2018-03-28T11:59:57.301Z,56.84
2018-03-28T12:00:57.283Z,56.52
2018-03-28T12:01:57.294Z,56.97
2018-03-28T12:02:57.282Z,57.36
2018-03-28T12:03:57.286Z,57.43
2018-03-28T12:04:57.292Z,57.03
2018-03-28T12:05:57.279Z,57.31
2018-03-28T12:06:57.285Z,57.7
2018-03-28T12:07:57.284Z,57.5
2018-03-28T12:08:57.278Z,57.8
2018-03-28T12:09:57.346Z,57.45
2018-03-28T12:10:57.278Z,57.77
2018-03-28T12:11:57.301Z,58.48
2018-03-28T12:12:57.285Z,59.05
2018-03-28T12:13:57.287Z,59.07
2018-03-28T12:14:57.291Z,59.11
2018-03-28T12:15:57.286Z,59
2018-03-28T12:16:57.291Z,58.9
2018-03-28T12:17:57.291Z,59.44
2018-03-28T12:18:57.290Z,59.09
2018-03-28T12:19:57.314Z,59.51
2018-03-28T12:20:57.290Z,59.62
2018-03-28T12:21:57.287Z,60.06
2018-03-28T12:22:57.296Z,60.82
2018-03-28T12:23:57.294Z,61.41
2018-03-28T12:24:57.293Z,60.94
2018-03-28T12:25:57.291Z,61.6
2018-03-28T12:26:57.296Z,62.27
2018-03-28T12:27:57.302Z,62.63
2018-03-28T12:28:57.326Z,63.17
2018-03-28T12:29:57.299Z,63.6
2018-03-28T12:30:57.303Z,64.16
2018-03-28T12:31:57.302Z,64.22
2018-03-28T12:32:57.301Z,64.34
2018-03-28T12:33:57.307Z,64.84
2018-03-28T12:34:57.295Z,64.92
2018-03-28T12:35:57.301Z,65.27
2018-03-28T12:36:57.299Z,65.42
2018-03-28T12:37:57.295Z,65.91
2018-03-28T12:38:57.301Z,66.52
2018-03-28T12:39:57.296Z,67.03
2018-03-28T12:40:57.353Z,68.14
2018-03-28T12:41:57.312Z,68.97
2018-03-28T12:42:57.307Z,69.23
2018-03-28T12:43:57.305Z,68.8
2018-03-28T12:44:57.323Z,69.21
2018-03-28T12:45:57.377Z,68.98
2018-03-28T12:46:57.307Z,69.73
2018-03-28T12:47:57.319Z,70.47
2018-03-28T12:48:57.309Z,71.53
2018-03-28T12:49:57.718Z,71.65
2018-03-28T12:50:57.302Z,71.94
2018-03-28T12:51:57.339Z,72.16
2018-03-28T12:52:57.309Z,73.08
2018-03-28T12:53:57.302Z,73.76
2018-03-28T12:54:57.354Z,73.91
2018-03-28T12:55:57.346Z,72.94